sensor_id;sensor_type;location;lat;lon;timestamp;P1;durP1;ratioP1;P2;durP2;ratioP2
21412;SDS011;10867;45.084;5.732;2022-11-20T00:00:45;3.72;;;2.10;;
21412;SDS011;10867;45.084;5.732;2022-11-20T00:03:12;3.38;;;2.00;;
21412;SDS011;10867;45.084;5.732;2022-11-20T00:05:38;4.55;;;2.20;;
21412;SDS011;10867;45.084;5.732;2022-11-20T00:08:04;3.35;;;2.00;;
21412;SDS011;10867;45.084;5.732;2022-11-20T00:10:30;5.03;;;2.00;;
21412;SDS011;10867;45.084;5.732;2022-11-20T00:12:59;5.55;;;2.22;;
21412;SDS011;10867;45.084;5.732;2022-11-20T00:15:25;3.70;;;2.03;;
21412;SDS011;10867;45.084;5.732;2022-11-20T00:17:52;3.42;;;1.90;;
21412;SDS011;10867;45.084;5.732;2022-11-20T00:20:18;4.68;;;2.10;;
21412;SDS011;10867;45.084;5.732;2022-11-20T00:22:44;3.88;;;1.90;;
21412;SDS011;10867;45.084;5.732;2022-11-20T00:25:10;4.40;;;2.15;;
21412;SDS011;10867;45.084;5.732;2022-11-20T00:27:36;3.65;;;2.08;;
21412;SDS011;10867;45.084;5.732;2022-11-20T00:30:03;4.35;;;2.25;;
21412;SDS011;10867;45.084;5.732;2022-11-20T00:32:29;3.17;;;2.00;;
21412;SDS011;10867;45.084;5.732;2022-11-20T00:34:55;2.97;;;2.08;;
21412;SDS011;10867;45.084;5.732;2022-11-20T00:37:21;3.58;;;2.10;;
21412;SDS011;10867;45.084;5.732;2022-11-20T00:39:47;4.13;;;2.30;;
21412;SDS011;10867;45.084;5.732;2022-11-20T00:42:14;4.78;;;2.30;;
21412;SDS011;10867;45.084;5.732;2022-11-20T00:44:40;3.22;;;2.13;;
21412;SDS011;10867;45.084;5.732;2022-11-20T00:47:06;3.35;;;2.25;;
21412;SDS011;10867;45.084;5.732;2022-11-20T00:49:32;3.33;;;2.40;;
21412;SDS011;10867;45.084;5.732;2022-11-20T00:51:58;4.50;;;2.63;;
21412;SDS011;10867;45.084;5.732;2022-11-20T00:54:25;4.23;;;2.70;;
21412;SDS011;10867;45.084;5.732;2022-11-20T00:56:54;5.80;;;3.00;;
21412;SDS011;10867;45.084;5.732;2022-11-20T00:59:20;4.28;;;2.80;;
21412;SDS011;10867;45.084;5.732;2022-11-20T01:01:47;3.50;;;2.83;;
21412;SDS011;10867;45.084;5.732;2022-11-20T01:04:13;5.05;;;3.10;;
21412;SDS011;10867;45.084;5.732;2022-11-20T01:06:39;5.57;;;4.63;;
21412;SDS011;10867;45.084;5.732;2022-11-20T01:09:06;5.32;;;4.22;;
21412;SDS011;10867;45.084;5.732;2022-11-20T01:11:34;3.22;;;2.70;;
21412;SDS011;10867;45.084;5.732;2022-11-20T01:14:01;3.80;;;2.90;;
21412;SDS011;10867;45.084;5.732;2022-11-20T01:16:29;7.10;;;3.93;;
21412;SDS011;10867;45.084;5.732;2022-11-20T01:18:58;4.93;;;3.00;;
21412;SDS011;10867;45.084;5.732;2022-11-20T01:21:29;6.32;;;3.95;;
21412;SDS011;10867;45.084;5.732;2022-11-20T01:23:56;5.33;;;2.70;;
21412;SDS011;10867;45.084;5.732;2022-11-20T01:26:23;4.82;;;2.55;;
21412;SDS011;10867;45.084;5.732;2022-11-20T01:28:50;4.65;;;2.80;;
21412;SDS011;10867;45.084;5.732;2022-11-20T01:31:18;3.73;;;2.60;;
21412;SDS011;10867;45.084;5.732;2022-11-20T01:33:45;4.68;;;2.50;;
21412;SDS011;10867;45.084;5.732;2022-11-20T01:36:11;3.47;;;2.60;;
21412;SDS011;10867;45.084;5.732;2022-11-20T01:38:38;4.63;;;2.60;;
21412;SDS011;10867;45.084;5.732;2022-11-20T01:41:05;3.13;;;2.50;;
21412;SDS011;10867;45.084;5.732;2022-11-20T01:43:32;3.47;;;2.13;;
21412;SDS011;10867;45.084;5.732;2022-11-20T01:46:05;3.85;;;2.45;;
21412;SDS011;10867;45.084;5.732;2022-11-20T01:48:39;2.92;;;2.13;;
21412;SDS011;10867;45.084;5.732;2022-11-20T01:51:08;3.58;;;2.25;;
21412;SDS011;10867;45.084;5.732;2022-11-20T01:53:36;5.88;;;2.38;;
21412;SDS011;10867;45.084;5.732;2022-11-20T01:56:03;3.33;;;2.28;;
21412;SDS011;10867;45.084;5.732;2022-11-20T01:58:33;4.78;;;2.42;;
21412;SDS011;10867;45.084;5.732;2022-11-20T02:01:02;4.40;;;2.30;;
21412;SDS011;10867;45.084;5.732;2022-11-20T02:03:28;3.25;;;2.15;;
21412;SDS011;10867;45.084;5.732;2022-11-20T02:08:59;4.25;;;2.50;;
21412;SDS011;10867;45.084;5.732;2022-11-20T02:11:25;2.75;;;2.10;;
21412;SDS011;10867;45.084;5.732;2022-11-20T02:13:51;5.82;;;2.40;;
21412;SDS011;10867;45.084;5.732;2022-11-20T02:16:22;3.03;;;2.40;;
21412;SDS011;10867;45.084;5.732;2022-11-20T02:18:49;3.95;;;2.60;;
21412;SDS011;10867;45.084;5.732;2022-11-20T02:21:21;4.40;;;2.47;;
21412;SDS011;10867;45.084;5.732;2022-11-20T02:24:00;4.15;;;2.53;;
21412;SDS011;10867;45.084;5.732;2022-11-20T02:26:27;4.18;;;2.25;;
21412;SDS011;10867;45.084;5.732;2022-11-20T02:28:54;3.53;;;2.33;;
21412;SDS011;10867;45.084;5.732;2022-11-20T02:31:20;3.63;;;2.28;;
21412;SDS011;10867;45.084;5.732;2022-11-20T02:33:46;3.78;;;2.40;;
21412;SDS011;10867;45.084;5.732;2022-11-20T02:36:14;3.40;;;2.30;;
21412;SDS011;10867;45.084;5.732;2022-11-20T02:38:41;4.57;;;2.60;;
21412;SDS011;10867;45.084;5.732;2022-11-20T02:41:07;3.95;;;2.60;;
21412;SDS011;10867;45.084;5.732;2022-11-20T02:43:33;3.60;;;2.60;;
21412;SDS011;10867;45.084;5.732;2022-11-20T02:45:59;4.72;;;2.78;;
21412;SDS011;10867;45.084;5.732;2022-11-20T02:48:26;4.18;;;2.90;;
21412;SDS011;10867;45.084;5.732;2022-11-20T02:50:52;5.22;;;3.05;;
21412;SDS011;10867;45.084;5.732;2022-11-20T02:53:19;6.05;;;3.53;;
21412;SDS011;10867;45.084;5.732;2022-11-20T02:55:45;5.50;;;3.17;;
21412;SDS011;10867;45.084;5.732;2022-11-20T02:58:11;6.03;;;3.23;;
21412;SDS011;10867;45.084;5.732;2022-11-20T03:00:38;5.10;;;3.33;;
21412;SDS011;10867;45.084;5.732;2022-11-20T03:03:04;4.97;;;3.30;;
21412;SDS011;10867;45.084;5.732;2022-11-20T03:05:30;4.80;;;3.40;;
21412;SDS011;10867;45.084;5.732;2022-11-20T03:07:57;5.37;;;3.67;;
21412;SDS011;10867;45.084;5.732;2022-11-20T03:10:23;4.47;;;3.63;;
21412;SDS011;10867;45.084;5.732;2022-11-20T03:12:53;5.67;;;3.60;;
21412;SDS011;10867;45.084;5.732;2022-11-20T03:15:20;6.18;;;3.63;;
21412;SDS011;10867;45.084;5.732;2022-11-20T03:17:47;5.43;;;3.60;;
21412;SDS011;10867;45.084;5.732;2022-11-20T03:20:13;6.03;;;3.60;;
21412;SDS011;10867;45.084;5.732;2022-11-20T03:22:39;5.93;;;3.45;;
21412;SDS011;10867;45.084;5.732;2022-11-20T03:25:06;5.45;;;3.60;;
21412;SDS011;10867;45.084;5.732;2022-11-20T03:27:35;3.90;;;3.10;;
21412;SDS011;10867;45.084;5.732;2022-11-20T03:30:01;4.05;;;3.20;;
21412;SDS011;10867;45.084;5.732;2022-11-20T03:32:28;5.20;;;3.30;;
21412;SDS011;10867;45.084;5.732;2022-11-20T03:34:54;5.05;;;3.20;;
21412;SDS011;10867;45.084;5.732;2022-11-20T03:37:20;6.03;;;3.47;;
21412;SDS011;10867;45.084;5.732;2022-11-20T03:39:46;5.22;;;3.30;;
21412;SDS011;10867;45.084;5.732;2022-11-20T03:42:12;4.85;;;3.20;;
21412;SDS011;10867;45.084;5.732;2022-11-20T03:44:57;5.10;;;3.65;;
21412;SDS011;10867;45.084;5.732;2022-11-20T03:47:23;4.18;;;3.53;;
21412;SDS011;10867;45.084;5.732;2022-11-20T03:49:49;6.30;;;4.15;;
21412;SDS011;10867;45.084;5.732;2022-11-20T03:52:15;6.80;;;4.57;;
21412;SDS011;10867;45.084;5.732;2022-11-20T03:54:41;5.05;;;4.38;;
21412;SDS011;10867;45.084;5.732;2022-11-20T03:57:08;5.40;;;3.90;;
21412;SDS011;10867;45.084;5.732;2022-11-20T03:59:34;6.25;;;4.03;;
21412;SDS011;10867;45.084;5.732;2022-11-20T04:02:00;4.95;;;3.65;;
21412;SDS011;10867;45.084;5.732;2022-11-20T04:04:26;6.63;;;3.75;;
21412;SDS011;10867;45.084;5.732;2022-11-20T04:06:52;5.60;;;3.63;;
21412;SDS011;10867;45.084;5.732;2022-11-20T04:09:18;5.13;;;3.50;;
21412;SDS011;10867;45.084;5.732;2022-11-20T04:11:44;5.63;;;3.58;;
21412;SDS011;10867;45.084;5.732;2022-11-20T04:14:14;4.57;;;3.40;;
21412;SDS011;10867;45.084;5.732;2022-11-20T04:16:40;5.32;;;3.40;;
21412;SDS011;10867;45.084;5.732;2022-11-20T04:19:09;6.22;;;3.60;;
21412;SDS011;10867;45.084;5.732;2022-11-20T04:21:35;5.87;;;3.47;;
21412;SDS011;10867;45.084;5.732;2022-11-20T04:24:01;4.47;;;3.50;;
21412;SDS011;10867;45.084;5.732;2022-11-20T04:26:28;5.68;;;3.30;;
21412;SDS011;10867;45.084;5.732;2022-11-20T04:28:55;4.57;;;3.37;;
21412;SDS011;10867;45.084;5.732;2022-11-20T04:31:22;3.90;;;3.03;;
21412;SDS011;10867;45.084;5.732;2022-11-20T04:33:49;4.32;;;3.08;;
21412;SDS011;10867;45.084;5.732;2022-11-20T04:36:16;3.83;;;3.20;;
21412;SDS011;10867;45.084;5.732;2022-11-20T04:38:42;6.07;;;3.10;;
21412;SDS011;10867;45.084;5.732;2022-11-20T04:41:16;3.95;;;3.00;;
21412;SDS011;10867;45.084;5.732;2022-11-20T04:43:45;3.90;;;3.00;;
21412;SDS011;10867;45.084;5.732;2022-11-20T04:46:12;4.75;;;2.85;;
21412;SDS011;10867;45.084;5.732;2022-11-20T04:48:38;4.97;;;3.10;;
21412;SDS011;10867;45.084;5.732;2022-11-20T04:51:05;4.18;;;2.70;;
21412;SDS011;10867;45.084;5.732;2022-11-20T04:53:31;4.35;;;3.20;;
21412;SDS011;10867;45.084;5.732;2022-11-20T04:56:04;4.63;;;2.85;;
21412;SDS011;10867;45.084;5.732;2022-11-20T04:58:31;4.38;;;2.80;;
21412;SDS011;10867;45.084;5.732;2022-11-20T05:01:03;4.78;;;2.72;;
21412;SDS011;10867;45.084;5.732;2022-11-20T05:03:29;4.97;;;2.88;;
21412;SDS011;10867;45.084;5.732;2022-11-20T05:05:55;6.30;;;2.83;;
21412;SDS011;10867;45.084;5.732;2022-11-20T05:08:21;3.50;;;2.72;;
21412;SDS011;10867;45.084;5.732;2022-11-20T05:10:47;4.28;;;3.00;;
21412;SDS011;10867;45.084;5.732;2022-11-20T05:13:13;6.07;;;3.10;;
21412;SDS011;10867;45.084;5.732;2022-11-20T05:15:40;4.60;;;2.92;;
21412;SDS011;10867;45.084;5.732;2022-11-20T05:18:06;4.20;;;2.97;;
21412;SDS011;10867;45.084;5.732;2022-11-20T05:20:32;4.03;;;2.90;;
21412;SDS011;10867;45.084;5.732;2022-11-20T05:22:58;4.23;;;3.07;;
21412;SDS011;10867;45.084;5.732;2022-11-20T05:25:24;4.60;;;3.03;;
21412;SDS011;10867;45.084;5.732;2022-11-20T05:27:51;4.63;;;3.15;;
21412;SDS011;10867;45.084;5.732;2022-11-20T05:30:18;4.90;;;3.00;;
21412;SDS011;10867;45.084;5.732;2022-11-20T05:32:44;4.38;;;3.00;;
21412;SDS011;10867;45.084;5.732;2022-11-20T05:35:10;6.13;;;2.95;;
21412;SDS011;10867;45.084;5.732;2022-11-20T05:37:36;4.72;;;3.00;;
21412;SDS011;10867;45.084;5.732;2022-11-20T05:40:03;4.32;;;2.92;;
21412;SDS011;10867;45.084;5.732;2022-11-20T05:42:32;6.65;;;2.80;;
21412;SDS011;10867;45.084;5.732;2022-11-20T05:44:58;4.37;;;2.73;;
21412;SDS011;10867;45.084;5.732;2022-11-20T05:47:25;7.65;;;5.93;;
21412;SDS011;10867;45.084;5.732;2022-11-20T05:49:51;14.95;;;11.02;;
21412;SDS011;10867;45.084;5.732;2022-11-20T05:52:18;5.38;;;2.83;;
21412;SDS011;10867;45.084;5.732;2022-11-20T05:54:44;6.15;;;3.60;;
21412;SDS011;10867;45.084;5.732;2022-11-20T05:57:10;5.93;;;4.22;;
21412;SDS011;10867;45.084;5.732;2022-11-20T05:59:36;5.43;;;3.00;;
21412;SDS011;10867;45.084;5.732;2022-11-20T06:02:02;6.00;;;4.57;;
21412;SDS011;10867;45.084;5.732;2022-11-20T06:04:29;4.15;;;2.58;;
21412;SDS011;10867;45.084;5.732;2022-11-20T06:06:55;11.70;;;7.75;;
21412;SDS011;10867;45.084;5.732;2022-11-20T06:09:21;5.35;;;2.70;;
21412;SDS011;10867;45.084;5.732;2022-11-20T06:11:47;6.43;;;4.13;;
21412;SDS011;10867;45.084;5.732;2022-11-20T06:14:13;7.38;;;2.97;;
21412;SDS011;10867;45.084;5.732;2022-11-20T06:16:39;4.00;;;2.70;;
21412;SDS011;10867;45.084;5.732;2022-11-20T06:19:05;3.67;;;2.67;;
21412;SDS011;10867;45.084;5.732;2022-11-20T06:21:31;4.63;;;2.90;;
21412;SDS011;10867;45.084;5.732;2022-11-20T06:23:58;3.87;;;2.93;;
21412;SDS011;10867;45.084;5.732;2022-11-20T06:26:25;4.30;;;2.93;;
21412;SDS011;10867;45.084;5.732;2022-11-20T06:28:52;4.55;;;3.67;;
21412;SDS011;10867;45.084;5.732;2022-11-20T06:31:19;4.32;;;3.00;;
21412;SDS011;10867;45.084;5.732;2022-11-20T06:33:46;6.63;;;3.83;;
21412;SDS011;10867;45.084;5.732;2022-11-20T06:36:13;4.70;;;3.17;;
21412;SDS011;10867;45.084;5.732;2022-11-20T06:38:40;6.13;;;3.33;;
21412;SDS011;10867;45.084;5.732;2022-11-20T06:41:08;14.38;;;9.18;;
21412;SDS011;10867;45.084;5.732;2022-11-20T06:43:36;18.70;;;14.10;;
21412;SDS011;10867;45.084;5.732;2022-11-20T06:46:02;15.45;;;11.50;;
21412;SDS011;10867;45.084;5.732;2022-11-20T06:48:28;11.48;;;9.50;;
21412;SDS011;10867;45.084;5.732;2022-11-20T06:50:55;10.00;;;8.13;;
21412;SDS011;10867;45.084;5.732;2022-11-20T06:53:22;8.48;;;7.30;;
21412;SDS011;10867;45.084;5.732;2022-11-20T06:55:48;7.47;;;5.28;;
21412;SDS011;10867;45.084;5.732;2022-11-20T06:58:15;6.25;;;5.20;;
21412;SDS011;10867;45.084;5.732;2022-11-20T07:00:41;7.87;;;5.00;;
21412;SDS011;10867;45.084;5.732;2022-11-20T07:03:08;5.95;;;5.35;;
21412;SDS011;10867;45.084;5.732;2022-11-20T07:05:35;8.43;;;6.40;;
21412;SDS011;10867;45.084;5.732;2022-11-20T07:08:03;9.87;;;6.40;;
21412;SDS011;10867;45.084;5.732;2022-11-20T07:10:30;11.25;;;9.05;;
21412;SDS011;10867;45.084;5.732;2022-11-20T07:12:56;8.40;;;7.40;;
21412;SDS011;10867;45.084;5.732;2022-11-20T07:15:23;8.37;;;5.97;;
21412;SDS011;10867;45.084;5.732;2022-11-20T07:17:51;7.78;;;6.80;;
21412;SDS011;10867;45.084;5.732;2022-11-20T07:20:17;7.50;;;4.40;;
21412;SDS011;10867;45.084;5.732;2022-11-20T07:22:43;6.85;;;4.90;;
21412;SDS011;10867;45.084;5.732;2022-11-20T07:25:09;7.40;;;5.90;;
21412;SDS011;10867;45.084;5.732;2022-11-20T07:27:35;6.50;;;5.40;;
21412;SDS011;10867;45.084;5.732;2022-11-20T07:30:02;6.63;;;4.90;;
21412;SDS011;10867;45.084;5.732;2022-11-20T07:32:29;5.95;;;4.88;;
21412;SDS011;10867;45.084;5.732;2022-11-20T07:40:44;6.38;;;5.00;;
21412;SDS011;10867;45.084;5.732;2022-11-20T07:43:10;7.38;;;5.05;;
21412;SDS011;10867;45.084;5.732;2022-11-20T07:45:36;7.60;;;5.00;;
21412;SDS011;10867;45.084;5.732;2022-11-20T07:48:02;7.38;;;5.00;;
21412;SDS011;10867;45.084;5.732;2022-11-20T07:50:28;7.85;;;6.00;;
21412;SDS011;10867;45.084;5.732;2022-11-20T07:53:04;9.18;;;7.60;;
21412;SDS011;10867;45.084;5.732;2022-11-20T07:55:30;11.35;;;10.10;;
21412;SDS011;10867;45.084;5.732;2022-11-20T07:57:57;13.63;;;11.13;;
21412;SDS011;10867;45.084;5.732;2022-11-20T08:00:23;9.50;;;8.23;;
21412;SDS011;10867;45.084;5.732;2022-11-20T08:02:50;10.13;;;7.40;;
21412;SDS011;10867;45.084;5.732;2022-11-20T08:05:16;9.65;;;7.50;;
21412;SDS011;10867;45.084;5.732;2022-11-20T08:07:43;7.53;;;5.90;;
21412;SDS011;10867;45.084;5.732;2022-11-20T08:10:10;8.45;;;6.30;;
21412;SDS011;10867;45.084;5.732;2022-11-20T08:12:43;7.75;;;5.72;;
21412;SDS011;10867;45.084;5.732;2022-11-20T08:15:28;7.93;;;6.00;;
21412;SDS011;10867;45.084;5.732;2022-11-20T08:18:04;6.22;;;5.57;;
21412;SDS011;10867;45.084;5.732;2022-11-20T08:20:31;7.27;;;5.13;;
21412;SDS011;10867;45.084;5.732;2022-11-20T08:23:01;7.05;;;4.95;;
21412;SDS011;10867;45.084;5.732;2022-11-20T08:25:30;8.43;;;6.97;;
21412;SDS011;10867;45.084;5.732;2022-11-20T08:28:00;13.68;;;11.57;;
21412;SDS011;10867;45.084;5.732;2022-11-20T08:30:27;13.50;;;9.98;;
21412;SDS011;10867;45.084;5.732;2022-11-20T08:32:53;9.90;;;8.88;;
21412;SDS011;10867;45.084;5.732;2022-11-20T08:35:20;10.48;;;8.32;;
21412;SDS011;10867;45.084;5.732;2022-11-20T08:37:47;8.73;;;6.90;;
21412;SDS011;10867;45.084;5.732;2022-11-20T08:40:13;10.27;;;7.82;;
21412;SDS011;10867;45.084;5.732;2022-11-20T08:42:47;10.43;;;8.40;;
21412;SDS011;10867;45.084;5.732;2022-11-20T08:45:13;10.00;;;7.80;;
21412;SDS011;10867;45.084;5.732;2022-11-20T08:47:39;11.45;;;7.55;;
21412;SDS011;10867;45.084;5.732;2022-11-20T08:50:06;9.35;;;7.20;;
21412;SDS011;10867;45.084;5.732;2022-11-20T08:52:33;8.73;;;6.97;;
21412;SDS011;10867;45.084;5.732;2022-11-20T08:54:59;8.95;;;7.25;;
21412;SDS011;10867;45.084;5.732;2022-11-20T08:57:25;8.07;;;6.40;;
21412;SDS011;10867;45.084;5.732;2022-11-20T08:59:51;8.45;;;6.18;;
21412;SDS011;10867;45.084;5.732;2022-11-20T09:02:17;10.02;;;7.30;;
21412;SDS011;10867;45.084;5.732;2022-11-20T09:04:43;8.43;;;7.00;;
21412;SDS011;10867;45.084;5.732;2022-11-20T09:07:09;9.50;;;6.90;;
21412;SDS011;10867;45.084;5.732;2022-11-20T09:09:35;9.70;;;5.85;;
21412;SDS011;10867;45.084;5.732;2022-11-20T09:12:01;6.97;;;5.63;;
21412;SDS011;10867;45.084;5.732;2022-11-20T09:14:28;8.10;;;5.50;;
21412;SDS011;10867;45.084;5.732;2022-11-20T09:16:55;6.45;;;5.03;;
21412;SDS011;10867;45.084;5.732;2022-11-20T09:19:23;7.40;;;5.63;;
21412;SDS011;10867;45.084;5.732;2022-11-20T09:21:49;14.10;;;11.10;;
21412;SDS011;10867;45.084;5.732;2022-11-20T09:24:15;17.60;;;14.20;;
21412;SDS011;10867;45.084;5.732;2022-11-20T09:26:41;8.30;;;6.68;;
21412;SDS011;10867;45.084;5.732;2022-11-20T09:29:07;9.15;;;7.32;;
21412;SDS011;10867;45.084;5.732;2022-11-20T09:31:33;10.48;;;6.30;;
21412;SDS011;10867;45.084;5.732;2022-11-20T09:33:59;7.68;;;4.90;;
21412;SDS011;10867;45.084;5.732;2022-11-20T09:36:25;5.47;;;4.50;;
21412;SDS011;10867;45.084;5.732;2022-11-20T09:38:51;5.72;;;4.13;;
21412;SDS011;10867;45.084;5.732;2022-11-20T09:44:24;11.50;;;7.80;;
21412;SDS011;10867;45.084;5.732;2022-11-20T09:47:10;6.20;;;4.00;;
21412;SDS011;10867;45.084;5.732;2022-11-20T09:55:00;5.60;;;4.47;;
21412;SDS011;10867;45.084;5.732;2022-11-20T09:57:33;8.50;;;4.78;;
21412;SDS011;10867;45.084;5.732;2022-11-20T10:00:00;15.82;;;10.48;;
21412;SDS011;10867;45.084;5.732;2022-11-20T10:02:35;6.47;;;5.07;;
21412;SDS011;10867;45.084;5.732;2022-11-20T10:05:09;6.13;;;4.13;;
21412;SDS011;10867;45.084;5.732;2022-11-20T10:10:04;16.30;;;9.38;;
21412;SDS011;10867;45.084;5.732;2022-11-20T10:20:42;11.85;;;8.20;;
21412;SDS011;10867;45.084;5.732;2022-11-20T10:29:06;5.75;;;3.42;;
21412;SDS011;10867;45.084;5.732;2022-11-20T10:31:39;5.93;;;3.28;;
21412;SDS011;10867;45.084;5.732;2022-11-20T10:36:46;6.90;;;3.97;;
21412;SDS011;10867;45.084;5.732;2022-11-20T10:39:17;5.75;;;3.88;;
21412;SDS011;10867;45.084;5.732;2022-11-20T10:41:44;5.78;;;3.97;;
21412;SDS011;10867;45.084;5.732;2022-11-20T10:44:14;5.55;;;4.20;;
21412;SDS011;10867;45.084;5.732;2022-11-20T10:47:01;6.28;;;3.90;;
21412;SDS011;10867;45.084;5.732;2022-11-20T10:49:27;5.57;;;3.80;;
21412;SDS011;10867;45.084;5.732;2022-11-20T10:52:05;14.45;;;9.43;;
21412;SDS011;10867;45.084;5.732;2022-11-20T10:54:39;5.43;;;3.80;;
21412;SDS011;10867;45.084;5.732;2022-11-20T10:57:24;5.30;;;3.00;;
21412;SDS011;10867;45.084;5.732;2022-11-20T10:59:58;4.73;;;2.97;;
21412;SDS011;10867;45.084;5.732;2022-11-20T11:05:17;3.30;;;2.10;;
21412;SDS011;10867;45.084;5.732;2022-11-20T11:07:47;3.03;;;1.98;;
21412;SDS011;10867;45.084;5.732;2022-11-20T11:10:18;4.50;;;1.83;;
21412;SDS011;10867;45.084;5.732;2022-11-20T11:12:45;2.55;;;1.77;;
21412;SDS011;10867;45.084;5.732;2022-11-20T11:15:58;2.75;;;1.65;;
21412;SDS011;10867;45.084;5.732;2022-11-20T11:18:05;1.98;;;1.70;;
21412;SDS011;10867;45.084;5.732;2022-11-20T11:20:40;2.20;;;1.50;;
21412;SDS011;10867;45.084;5.732;2022-11-20T11:23:26;3.08;;;1.60;;
21412;SDS011;10867;45.084;5.732;2022-11-20T11:25:56;3.50;;;1.90;;
21412;SDS011;10867;45.084;5.732;2022-11-20T11:28:27;3.53;;;1.90;;
21412;SDS011;10867;45.084;5.732;2022-11-20T11:31:16;2.90;;;1.60;;
21412;SDS011;10867;45.084;5.732;2022-11-20T11:34:07;1.83;;;1.60;;
21412;SDS011;10867;45.084;5.732;2022-11-20T11:36:37;2.88;;;1.73;;
21412;SDS011;10867;45.084;5.732;2022-11-20T11:39:04;2.38;;;1.50;;
21412;SDS011;10867;45.084;5.732;2022-11-20T11:41:34;3.78;;;1.77;;
21412;SDS011;10867;45.084;5.732;2022-11-20T11:44:17;3.47;;;1.50;;
21412;SDS011;10867;45.084;5.732;2022-11-20T11:47:04;2.90;;;1.80;;
21412;SDS011;10867;45.084;5.732;2022-11-20T11:49:31;2.10;;;1.67;;
21412;SDS011;10867;45.084;5.732;2022-11-20T11:54:36;5.95;;;1.77;;
21412;SDS011;10867;45.084;5.732;2022-11-20T12:00:06;2.67;;;1.80;;
21412;SDS011;10867;45.084;5.732;2022-11-20T12:02:55;2.40;;;1.70;;
21412;SDS011;10867;45.084;5.732;2022-11-20T12:08:10;2.03;;;1.60;;
21412;SDS011;10867;45.084;5.732;2022-11-20T12:10:44;3.20;;;1.50;;
21412;SDS011;10867;45.084;5.732;2022-11-20T12:15:58;3.33;;;1.90;;
21412;SDS011;10867;45.084;5.732;2022-11-20T12:18:25;2.90;;;1.60;;
21412;SDS011;10867;45.084;5.732;2022-11-20T12:20:55;2.17;;;1.52;;
21412;SDS011;10867;45.084;5.732;2022-11-20T12:25:56;2.58;;;1.50;;
21412;SDS011;10867;45.084;5.732;2022-11-20T12:28:38;2.30;;;1.77;;
21412;SDS011;10867;45.084;5.732;2022-11-20T12:33:44;4.40;;;2.10;;
21412;SDS011;10867;45.084;5.732;2022-11-20T12:38:50;2.20;;;1.40;;
21412;SDS011;10867;45.084;5.732;2022-11-20T12:47:31;3.58;;;1.67;;
21412;SDS011;10867;45.084;5.732;2022-11-20T12:50:09;1.97;;;1.40;;
21412;SDS011;10867;45.084;5.732;2022-11-20T12:52:55;2.70;;;1.55;;
21412;SDS011;10867;45.084;5.732;2022-11-20T13:05:19;2.33;;;1.80;;
21412;SDS011;10867;45.084;5.732;2022-11-20T13:08:06;2.03;;;1.75;;
21412;SDS011;10867;45.084;5.732;2022-11-20T13:10:45;3.80;;;2.00;;
21412;SDS011;10867;45.084;5.732;2022-11-20T13:13:40;2.65;;;1.70;;
21412;SDS011;10867;45.084;5.732;2022-11-20T13:16:17;2.83;;;1.67;;
21412;SDS011;10867;45.084;5.732;2022-11-20T13:18:58;2.63;;;1.70;;
21412;SDS011;10867;45.084;5.732;2022-11-20T13:21:36;2.05;;;1.50;;
21412;SDS011;10867;45.084;5.732;2022-11-20T13:34:28;3.50;;;1.70;;
21412;SDS011;10867;45.084;5.732;2022-11-20T13:37:04;2.33;;;1.42;;
21412;SDS011;10867;45.084;5.732;2022-11-20T13:39:33;2.67;;;1.20;;
21412;SDS011;10867;45.084;5.732;2022-11-20T13:44:53;4.15;;;1.40;;
21412;SDS011;10867;45.084;5.732;2022-11-20T13:47:50;3.15;;;1.48;;
21412;SDS011;10867;45.084;5.732;2022-11-20T13:53:21;1.92;;;1.17;;
21412;SDS011;10867;45.084;5.732;2022-11-20T14:01:32;2.47;;;1.40;;
21412;SDS011;10867;45.084;5.732;2022-11-20T16:59:05;14.50;;;8.15;;
21412;SDS011;10867;45.084;5.732;2022-11-20T17:01:36;32.67;;;18.40;;
21412;SDS011;10867;45.084;5.732;2022-11-20T17:04:05;21.98;;;14.23;;
21412;SDS011;10867;45.084;5.732;2022-11-20T17:06:35;16.58;;;9.40;;
21412;SDS011;10867;45.084;5.732;2022-11-20T17:09:22;15.38;;;10.35;;
21412;SDS011;10867;45.084;5.732;2022-11-20T17:11:48;16.95;;;14.50;;
21412;SDS011;10867;45.084;5.732;2022-11-20T17:17:19;13.07;;;9.40;;
21412;SDS011;10867;45.084;5.732;2022-11-20T17:27:27;12.18;;;9.05;;
21412;SDS011;10867;45.084;5.732;2022-11-20T17:30:01;7.50;;;5.80;;
21412;SDS011;10867;45.084;5.732;2022-11-20T17:43:34;5.50;;;4.90;;
21412;SDS011;10867;45.084;5.732;2022-11-20T17:52:50;12.73;;;10.60;;
21412;SDS011;10867;45.084;5.732;2022-11-20T17:55:54;7.40;;;5.90;;
21412;SDS011;10867;45.084;5.732;2022-11-20T17:59:14;5.00;;;4.20;;
21412;SDS011;10867;45.084;5.732;2022-11-20T18:02:33;6.80;;;4.68;;
21412;SDS011;10867;45.084;5.732;2022-11-20T18:06:10;7.38;;;5.05;;
21412;SDS011;10867;45.084;5.732;2022-11-20T18:39:46;13.65;;;11.82;;
21412;SDS011;10867;45.084;5.732;2022-11-20T18:42:35;18.60;;;12.63;;
21412;SDS011;10867;45.084;5.732;2022-11-20T18:45:49;12.48;;;8.65;;
